Terminal Aerodrome Forecast
Issued by NWS Louisville, KY

Home | Current Version | Previous Version | Text Only | Print | Product List | Glossary On
Versions: 1 2 3 4 5 6 7 8 9 10 11 12 13 14 15 16
000
FTUS43 KLMK 250526
TAFSDF
TAF
KSDF 250526Z 2506/2612 16004KT P6SM SCT080 BKN250
     FM251200 19008KT P6SM VCSH BKN060
     FM251700 20010G17KT P6SM SCT060 BKN250
     FM252300 18007KT P6SM SCT100 BKN250=

USA.gov is the U.S. government's official web portal to all federal, state and local government web resources and services.